Time;durP1;ratioP1;P1;durP2;ratioP2;P2;SDS_P1;SDS_P2;PMS_P1;PMS_P2;Temp;Humidity;BMP_temperature;BMP_pressure;BME280_temperature;BME280_humidity;BME280_pressure;Samples;Min_cycle;Max_cycle;Signal;HPM_P1;HPM_P2
2022/05/21 00:00:23;;;;;;;17.63;9.50;;;;;;;38.58;41.20;101145.03;5031426;28;20443;-74
2022/05/21 00:02:50;;;;;;;17.67;8.17;;;;;;;38.58;41.39;101136.91;5031509;28;20426;-76
2022/05/21 00:05:18;;;;;;;24.83;9.73;;;;;;;38.61;41.59;101141.72;5031003;28;20860;-76
2022/05/21 00:07:44;;;;;;;19.30;5.27;;;;;;;38.67;41.46;101142.41;5031186;28;20489;-76
2022/05/21 00:10:13;;;;;;;14.10;6.50;;;;;;;38.70;41.24;101139.09;5032167;28;20957;-74
2022/05/21 00:12:40;;;;;;;13.40;6.23;;;;;;;38.52;41.90;101148.16;5031109;28;20426;-74
2022/05/21 00:15:07;;;;;;;16.10;5.20;;;;;;;38.53;42.64;101142.44;5030925;28;20412;-74
2022/05/21 00:17:33;;;;;;;20.80;8.50;;;;;;;38.59;42.42;101138.50;5030848;28;20465;-74
2022/05/21 00:20:00;;;;;;;28.83;10.63;;;;;;;38.63;42.74;101136.81;5032282;28;20408;-74
2022/05/21 00:22:27;;;;;;;24.07;8.20;;;;;;;38.73;42.83;101133.06;5030667;28;20446;-75
2022/05/21 00:24:53;;;;;;;17.93;7.13;;;;;;;38.78;42.81;101138.38;5030780;28;20888;-75
2022/05/21 00:27:19;;;;;;;18.53;7.40;;;;;;;38.67;42.78;101140.50;5030909;28;20878;-75
2022/05/21 00:29:46;;;;;;;16.27;6.10;;;;;;;38.66;42.79;101138.88;5030594;28;20451;-74
2022/05/21 00:32:12;;;;;;;22.33;8.53;;;;;;;38.52;42.55;101138.13;5030731;28;20467;-74
2022/05/21 00:34:38;;;;;;;13.80;7.00;;;;;;;38.57;42.21;101129.09;5030612;28;20423;-75
2022/05/21 00:37:04;;;;;;;16.60;6.03;;;;;;;38.53;42.70;101128.06;5030638;28;20913;-75
2022/05/21 00:39:31;;;;;;;12.77;5.73;;;;;;;38.48;42.45;101134.41;5031863;28;20503;-75
2022/05/21 00:42:05;;;;;;;17.70;8.83;;;;;;;38.41;42.33;101134.00;5030634;28;20411;-74
2022/05/21 00:44:31;;;;;;;18.40;8.60;;;;;;;38.61;41.99;101136.31;5030474;28;20440;-74
2022/05/21 00:46:57;;;;;;;27.60;6.90;;;;;;;38.37;42.59;101141.16;5031788;28;20458;-74
2022/05/21 00:49:27;;;;;;;18.70;8.20;;;;;;;38.40;42.34;101146.75;5014292;28;20522;-76
2022/05/21 00:51:58;;;;;;;11.33;7.00;;;;;;;38.42;41.51;101149.97;5031702;28;20514;-75
2022/05/21 00:54:30;;;;;;;17.10;6.70;;;;;;;38.47;41.37;101134.72;5031938;28;20834;-74
2022/05/21 00:57:02;;;;;;;22.63;5.80;;;;;;;38.31;41.22;101131.53;5032219;28;20407;-76
2022/05/21 00:59:47;;;;;;;12.40;5.70;;;;;;;38.34;41.07;101125.50;5030396;28;20471;-74
2022/05/21 01:02:20;;;;;;;17.43;6.37;;;;;;;38.30;41.57;101117.16;5030423;28;20509;-74
2022/05/21 01:04:48;;;;;;;19.47;6.13;;;;;;;38.42;41.37;101125.56;5031787;28;20457;-73
2022/05/21 01:07:15;;;;;;;30.43;16.50;;;;;;;38.39;41.34;101118.06;5031667;28;20442;-75
2022/05/21 01:09:50;;;;;;;15.47;6.63;;;;;;;38.22;41.74;101104.28;5031740;28;20435;-76
2022/05/21 01:12:16;;;;;;;11.77;5.77;;;;;;;38.08;40.93;101090.78;5030294;28;20972;-76
2022/05/21 01:14:43;;;;;;;14.83;7.50;;;;;;;38.22;40.70;101089.94;5030350;28;20427;-74
2022/05/21 01:17:09;;;;;;;13.10;6.40;;;;;;;38.29;40.27;101084.94;5030395;28;20420;-75
2022/05/21 01:20:00;;;;;;;14.40;6.73;;;;;;;38.03;40.43;101076.53;5030276;28;20874;-75
2022/05/21 01:22:40;;;;;;;19.17;5.90;;;;;;;38.05;40.45;101068.88;5030264;28;20494;-77
2022/05/21 01:25:07;;;;;;;19.67;6.93;;;;;;;38.12;40.73;101064.69;5030320;28;20433;-76
2022/05/21 01:27:34;;;;;;;12.20;5.17;;;;;;;37.94;41.05;101065.59;5030202;28;20930;-76
2022/05/21 01:30:03;;;;;;;12.53;4.70;;;;;;;38.09;41.18;101072.59;5030009;28;20424;-76
2022/05/21 01:32:29;;;;;;;13.80;4.73;;;;;;;37.89;41.67;101058.38;5030214;28;20428;-76
2022/05/21 01:34:56;;;;;;;20.53;5.90;;;;;;;37.95;41.19;101055.56;5030071;28;20806;-74
2022/05/21 01:37:23;;;;;;;10.40;5.37;;;;;;;37.76;41.66;101053.75;5030164;28;20837;-74
2022/05/21 01:39:49;;;;;;;20.47;8.50;;;;;;;37.99;42.00;101041.09;5029770;28;20487;-74
2022/05/21 01:42:15;;;;;;;12.10;5.30;;;;;;;38.00;41.58;101050.84;5030110;28;20470;-75
2022/05/21 01:44:42;;;;;;;23.20;6.93;;;;;;;37.98;42.23;101050.34;5030187;28;20455;-74
2022/05/21 01:47:10;;;;;;;14.93;6.30;;;;;;;38.00;41.78;101050.03;5029874;28;20444;-74
2022/05/21 01:49:37;;;;;;;14.10;6.83;;;;;;;37.88;42.52;101054.06;5029994;28;20791;-73
2022/05/21 01:52:05;;;;;;;11.20;5.13;;;;;;;37.71;42.42;101053.81;5031080;28;20895;-74
2022/05/21 01:54:32;;;;;;;11.63;5.90;;;;;;;37.99;42.70;101054.66;5031340;28;20857;-76
2022/05/21 01:56:59;;;;;;;18.13;8.07;;;;;;;38.03;42.68;101061.06;5033420;28;20453;-75
2022/05/21 01:59:26;;;;;;;27.67;9.27;;;;;;;37.93;42.87;101055.84;5034763;28;20479;-76
2022/05/21 02:01:53;;;;;;;15.83;7.13;;;;;;;38.15;42.25;101061.38;5033552;28;20416;-74
2022/05/21 02:04:20;;;;;;;16.60;5.60;;;;;;;38.22;41.77;101052.03;5034733;28;20450;-75
2022/05/21 02:06:47;;;;;;;16.67;6.50;;;;;;;38.30;41.84;101059.44;5033613;28;20945;-74
2022/05/21 02:09:14;;;;;;;21.83;7.63;;;;;;;38.41;41.62;101064.34;5033305;28;20443;-75
2022/05/21 02:11:40;;;;;;;10.47;6.70;;;;;;;38.35;41.98;101062.84;5033241;28;20517;-75
2022/05/21 02:14:08;;;;;;;26.33;8.20;;;;;;;38.41;41.80;101061.66;5033278;28;20428;-74
2022/05/21 02:16:36;;;;;;;17.57;6.23;;;;;;;38.40;41.80;101062.75;5033372;28;20459;-74
2022/05/21 02:19:03;;;;;;;24.87;6.70;;;;;;;38.28;41.93;101057.06;5033475;28;20482;-75
2022/05/21 02:21:31;;;;;;;12.70;6.67;;;;;;;38.37;41.83;101065.28;5032940;28;20453;-76
2022/05/21 02:23:57;;;;;;;19.90;8.70;;;;;;;38.51;41.79;101078.81;5033293;28;20993;-74
2022/05/21 02:26:24;;;;;;;17.20;7.17;;;;;;;38.35;41.63;101072.91;5032983;28;20915;-75
2022/05/21 02:28:50;;;;;;;14.03;5.90;;;;;;;38.35;41.58;101068.28;5034034;28;20961;-74
2022/05/21 02:31:16;;;;;;;25.50;6.50;;;;;;;38.37;41.60;101081.53;5032809;28;20466;-74
2022/05/21 02:33:43;;;;;;;16.33;9.20;;;;;;;38.46;41.46;101085.13;5032772;28;20436;-74
2022/05/21 02:36:10;;;;;;;15.77;7.50;;;;;;;38.52;41.27;101083.91;5032667;28;20444;-74
2022/05/21 02:41:22;;;;;;;15.70;7.53;;;;;;;38.72;41.18;101098.94;5034348;28;20830;-75
2022/05/21 02:43:48;;;;;;;14.13;6.33;;;;;;;38.68;40.92;101093.31;5032490;28;20451;-75
2022/05/21 02:46:15;;;;;;;15.70;5.83;;;;;;;38.54;40.57;101095.25;5032597;28;20817;-74
2022/05/21 02:48:42;;;;;;;19.60;5.57;;;;;;;38.60;40.63;101093.22;5032683;28;20439;-74
2022/05/21 02:51:10;;;;;;;11.97;5.77;;;;;;;38.55;40.74;101094.16;5032349;28;20471;-76
2022/05/21 02:53:37;;;;;;;22.37;7.73;;;;;;;38.51;41.00;101085.03;5032612;28;20419;-75
2022/05/21 02:56:08;;;;;;;26.87;6.90;;;;;;;38.33;41.13;101091.38;5032477;28;20447;-75
2022/05/21 02:58:35;;;;;;;12.77;6.10;;;;;;;38.50;40.98;101091.56;5033632;28;20980;-76
2022/05/21 03:01:01;;;;;;;10.30;5.47;;;;;;;38.52;40.93;101092.03;5032370;28;20506;-75
2022/05/21 03:03:27;;;;;;;13.77;6.90;;;;;;;38.40;41.18;101097.19;5032268;28;20429;-75
2022/05/21 03:05:53;;;;;;;19.67;10.47;;;;;;;38.32;41.36;101093.28;5031932;28;20446;-74
2022/05/21 03:11:04;;;;;;;14.00;5.60;;;;;;;38.11;41.00;101086.66;5033304;28;20502;-75
2022/05/21 03:13:34;;;;;;;15.40;7.23;;;;;;;38.15;40.86;101080.31;5032030;28;21003;-76
2022/05/21 03:16:00;;;;;;;21.13;5.83;;;;;;;38.27;41.32;101084.47;5031963;28;20450;-75
2022/05/21 03:18:27;;;;;;;16.50;6.67;;;;;;;38.09;41.34;101080.72;5032056;28;20431;-76
2022/05/21 03:20:53;;;;;;;24.23;7.37;;;;;;;38.20;41.35;101079.44;5031850;28;20444;-74
2022/05/21 03:23:19;;;;;;;20.53;7.67;;;;;;;38.23;40.93;101084.22;5031986;28;20972;-75
2022/05/21 03:25:45;;;;;;;23.07;7.40;;;;;;;38.29;40.90;101084.94;5048490;28;20533;-76
2022/05/21 03:28:16;;;;;;;11.83;6.03;;;;;;;38.38;40.57;101088.56;5031858;28;20455;-76
2022/05/21 03:30:43;;;;;;;15.00;6.23;;;;;;;38.46;40.62;101093.25;5031531;28;20486;-76
2022/05/21 03:33:09;;;;;;;24.87;8.83;;;;;;;38.44;40.56;101088.16;5031668;28;20432;-75
2022/05/21 03:35:35;;;;;;;16.60;6.30;;;;;;;38.55;40.58;101096.03;5031692;28;20795;-75
2022/05/21 03:38:01;;;;;;;20.27;8.10;;;;;;;38.69;40.88;101100.34;5032749;28;20823;-74
2022/05/21 03:40:30;;;;;;;21.73;8.17;;;;;;;38.69;40.52;101102.25;5036462;28;20464;-75
2022/05/21 03:42:56;;;;;;;17.10;6.50;;;;;;;38.66;40.41;101100.94;5011631;28;20439;-74
2022/05/21 03:45:23;;;;;;;15.40;9.00;;;;;;;38.62;40.79;101097.25;5016781;28;21031;-74
2022/05/21 03:47:51;;;;;;;22.03;7.00;;;;;;;38.51;41.10;101092.34;5032751;28;20918;-74
2022/05/21 03:50:22;;;;;;;23.43;6.40;;;;;;;38.51;40.63;101087.72;5031324;28;20424;-74
2022/05/21 03:52:48;;;;;;;14.90;7.30;;;;;;;38.48;40.83;101093.75;5031323;28;20938;-75
2022/05/21 03:55:15;;;;;;;18.70;6.10;;;;;;;38.41;40.50;101094.16;5031337;28;20431;-76
2022/05/21 03:57:42;;;;;;;18.00;7.23;;;;;;;38.60;40.61;101101.34;5032758;28;20899;-74
2022/05/21 04:00:12;;;;;;;17.43;8.77;;;;;;;38.57;40.67;101083.00;5031134;28;20810;-75
2022/05/21 04:02:39;;;;;;;20.87;10.63;;;;;;;38.49;40.66;101091.84;5047920;28;20411;-76
2022/05/21 04:05:06;;;;;;;19.30;5.87;;;;;;;38.36;40.72;101085.34;5031411;28;20427;-75
2022/05/21 04:07:33;;;;;;;13.63;7.03;;;;;;;38.43;41.20;101088.47;5031137;28;20482;-76
2022/05/21 04:09:59;;;;;;;14.40;6.87;;;;;;;38.44;40.93;101095.47;5031116;28;20453;-75
2022/05/21 04:12:25;;;;;;;17.70;9.30;;;;;;;38.26;41.29;101094.50;5027051;28;20541;-73
2022/05/21 04:14:52;;;;;;;16.33;8.33;;;;;;;37.84;42.98;101112.63;5020824;28;20458;-74
2022/05/21 04:17:18;;;;;;;12.17;6.20;;;;;;;37.24;44.34;101098.19;5020001;28;20908;-74
2022/05/21 04:19:44;;;;;;;14.80;7.23;;;;;;;37.54;43.59;101097.72;5029044;28;20431;-74
2022/05/21 04:22:10;;;;;;;18.63;8.10;;;;;;;37.64;43.19;101104.84;5020205;28;20408;-74
2022/05/21 04:24:37;;;;;;;16.77;7.70;;;;;;;37.66;43.43;101105.34;5019940;28;20843;-74
2022/05/21 04:27:03;;;;;;;15.60;7.87;;;;;;;37.50;43.79;101102.09;5019804;28;20907;-74
2022/05/21 04:29:29;;;;;;;14.87;9.93;;;;;;;37.71;43.59;101116.09;5021439;28;20422;-74
2022/05/21 04:31:55;;;;;;;10.67;6.67;;;;;;;37.41;43.90;101109.31;5017667;28;20483;-74
2022/05/21 04:34:22;;;;;;;10.60;7.20;;;;;;;37.20;44.74;101118.81;5021830;28;20438;-74
2022/05/21 04:36:48;;;;;;;15.03;7.13;;;;;;;37.37;44.04;101125.31;5020655;28;20483;-74
2022/05/21 04:39:14;;;;;;;17.40;9.07;;;;;;;37.44;44.33;101122.22;5021386;28;20500;-75
2022/05/21 04:41:40;;;;;;;15.33;11.50;;;;;;;37.59;43.56;101121.19;5026735;28;20451;-74
2022/05/21 04:44:07;;;;;;;23.60;18.43;;;;;;;37.67;43.67;101123.19;5029182;28;20411;-73
2022/05/21 04:46:35;;;;;;;33.93;23.63;;;;;;;37.39;44.21;101127.75;5032037;28;20399;-74
2022/05/21 04:49:01;;;;;;;37.10;23.17;;;;;;;37.27;44.54;101124.69;5031848;28;20953;-75
2022/05/21 04:51:27;;;;;;;31.30;21.40;;;;;;;37.56;44.06;101119.84;5028802;28;20467;-73
2022/05/21 04:53:53;;;;;;;39.20;21.67;;;;;;;37.66;43.80;101127.00;5052058;28;20440;-75
2022/05/21 04:56:20;;;;;;;25.23;17.87;;;;;;;37.71;43.71;101126.91;5037466;28;20969;-75
2022/05/21 04:58:46;;;;;;;21.50;14.73;;;;;;;37.71;43.57;101128.81;5055863;28;20827;-74
2022/05/21 05:01:12;;;;;;;18.40;10.80;;;;;;;37.72;43.67;101127.72;5037367;28;20807;-74
2022/05/21 05:03:38;;;;;;;15.97;9.97;;;;;;;37.49;43.64;101143.78;5053158;28;20511;-73
2022/05/21 05:06:06;;;;;;;22.80;11.10;;;;;;;37.51;44.29;101135.41;5050012;28;20399;-75
2022/05/21 05:08:32;;;;;;;13.37;10.30;;;;;;;37.58;43.65;101147.44;5065953;28;20427;-75
2022/05/21 05:10:58;;;;;;;21.53;11.07;;;;;;;37.56;43.65;101146.13;5048703;28;20530;-75
2022/05/21 05:13:24;;;;;;;23.03;12.40;;;;;;;37.31;44.46;101147.31;5048559;28;20476;-74
2022/05/21 05:15:50;;;;;;;25.77;15.03;;;;;;;37.38;44.24;101143.19;5048230;28;20446;-75
2022/05/21 05:18:23;;;;;;;19.30;10.50;;;;;;;37.45;44.28;101139.31;5048401;28;20422;-75
2022/05/21 05:20:50;;;;;;;27.80;13.27;;;;;;;37.50;43.50;101153.53;5048361;28;20933;-75
2022/05/21 05:23:17;;;;;;;13.30;10.10;;;;;;;37.49;43.95;101149.22;5048320;28;20455;-75
2022/05/21 05:25:43;;;;;;;22.80;14.53;;;;;;;37.51;43.66;101149.75;5049194;28;20510;-75
2022/05/21 05:28:19;;;;;;;36.90;20.27;;;;;;;37.42;44.20;101148.78;5051398;28;20462;-75
2022/05/21 05:30:49;;;;;;;27.33;21.50;;;;;;;37.19;44.77;101153.19;5053411;28;20908;-73
2022/05/21 05:33:19;;;;;;;19.27;13.97;;;;;;;37.24;44.26;101160.41;5053758;28;20496;-73
2022/05/21 05:35:48;;;;;;;22.53;10.23;;;;;;;37.47;44.32;101162.25;5054190;28;20434;-74
2022/05/21 05:38:15;;;;;;;25.87;9.57;;;;;;;37.49;43.16;101173.56;5053462;28;20458;-75
2022/05/21 05:40:45;;;;;;;21.77;10.33;;;;;;;37.27;42.99;101173.38;5070581;28;20406;-75
2022/05/21 05:43:12;;;;;;;19.80;8.03;;;;;;;37.18;43.86;101172.41;5070212;28;20452;-75
2022/05/21 05:45:38;;;;;;;17.80;8.43;;;;;;;37.21;43.83;101188.88;5053692;28;20411;-75
2022/05/21 05:48:05;;;;;;;16.33;8.30;;;;;;;36.86;45.20;101185.53;5053415;28;20509;-74
2022/05/21 05:50:31;;;;;;;22.13;12.20;;;;;;;36.74;44.93;101184.34;5070184;28;20429;-75
2022/05/21 05:53:02;;;;;;;24.00;15.30;;;;;;;36.40;44.63;101177.22;5070036;28;20505;-75
2022/05/21 05:55:30;;;;;;;24.43;19.43;;;;;;;36.86;44.48;101180.13;5053544;28;20423;-75
2022/05/21 05:57:57;;;;;;;23.77;10.30;;;;;;;37.15;44.12;101181.13;5054910;28;20457;-74
2022/05/21 06:00:23;;;;;;;19.60;8.00;;;;;;;37.27;44.92;101179.59;5053197;28;20529;-75
2022/05/21 06:02:58;;;;;;;12.50;7.30;;;;;;;37.34;45.17;101174.63;5030216;28;20992;-76
2022/05/21 06:05:28;;;;;;;17.83;9.03;;;;;;;37.35;45.63;101178.13;5034547;28;20878;-75
2022/05/21 06:07:57;;;;;;;19.73;10.00;;;;;;;37.26;46.20;101177.97;5050013;28;20427;-76
2022/05/21 06:10:33;;;;;;;17.53;11.10;;;;;;;37.43;45.48;101182.88;5033235;28;20439;-74
2022/05/21 06:12:59;;;;;;;90.83;50.80;;;;;;;36.83;46.20;101188.00;5033033;28;20434;-74
2022/05/21 06:15:26;;;;;;;47.53;33.40;;;;;;;36.74;46.08;101187.84;5049736;28;20424;-74
2022/05/21 06:17:52;;;;;;;43.43;30.00;;;;;;;36.79;45.89;101184.28;5034229;28;21016;-73
2022/05/21 06:20:21;;;;;;;48.43;26.33;;;;;;;36.82;45.44;101186.41;5049637;28;20429;-74
2022/05/21 06:22:48;;;;;;;40.30;28.80;;;;;;;36.89;45.44;101184.16;5033704;28;20468;-73
2022/05/21 06:25:19;;;;;;;31.70;22.10;;;;;;;36.76;45.75;101190.25;5033122;28;20415;-73
2022/05/21 06:27:47;;;;;;;24.37;8.40;;;;;;;36.14;47.63;101192.84;5034253;28;20399;-73
2022/05/21 06:30:14;;;;;;;16.23;7.63;;;;;;;36.55;46.75;101209.44;5034328;28;20404;-74
2022/05/21 06:32:41;;;;;;;17.70;10.60;;;;;;;36.78;47.11;101213.22;5031338;28;20464;-73
2022/05/21 06:35:08;;;;;;;46.30;35.30;;;;;;;36.63;47.51;101220.69;5014404;28;20470;-73
2022/05/21 06:37:35;;;;;;;39.37;26.10;;;;;;;36.89;47.17;101221.22;5013149;28;20420;-74
2022/05/21 06:40:02;;;;;;;33.53;22.93;;;;;;;37.17;46.43;101236.53;5016649;28;20542;-74
2022/05/21 06:42:29;;;;;;;36.13;22.93;;;;;;;37.28;46.80;101234.50;5057901;28;20467;-74
2022/05/21 06:44:55;;;;;;;28.17;20.97;;;;;;;37.38;46.20;101239.75;5041322;28;20992;-76
2022/05/21 06:47:21;;;;;;;20.03;12.53;;;;;;;37.12;46.60;101248.22;5058468;28;20426;-74
2022/05/21 06:49:47;;;;;;;19.80;11.73;;;;;;;37.04;46.73;101248.88;5059771;28;20422;-74
2022/05/21 06:52:14;;;;;;;16.70;12.70;;;;;;;37.11;46.68;101254.72;5057816;28;20505;-76
2022/05/21 06:54:40;;;;;;;29.90;16.83;;;;;;;37.28;46.44;101248.81;5039292;28;20937;-73
2022/05/21 06:57:10;;;;;;;28.27;13.83;;;;;;;37.37;45.50;101251.69;5066706;28;20419;-73
2022/05/21 06:59:37;;;;;;;17.93;11.43;;;;;;;36.96;46.47;101244.13;5049330;28;20428;-71
2022/05/21 07:02:04;;;;;;;24.20;14.10;;;;;;;37.40;45.59;101244.91;5031327;28;20938;-74
2022/05/21 07:07:33;;;;;;;42.07;21.77;;;;;;;37.47;45.57;101254.25;5027072;28;20494;-73
2022/05/21 07:10:05;;;;;;;21.17;14.87;;;;;;;37.29;45.50;101249.63;5038632;28;20489;-73
2022/05/21 07:12:33;;;;;;;26.03;16.87;;;;;;;37.46;45.01;101241.81;5025298;28;20467;-73
2022/05/21 07:15:00;;;;;;;32.43;22.00;;;;;;;37.48;45.32;101233.41;5010972;28;20439;-73
2022/05/21 07:17:28;;;;;;;29.87;18.63;;;;;;;37.48;44.84;101226.09;5025437;28;20949;-75
2022/05/21 07:19:55;;;;;;;33.13;19.47;;;;;;;37.15;45.78;101224.41;5048506;28;20427;-71
2022/05/21 07:22:22;;;;;;;37.03;20.40;;;;;;;37.11;46.22;101222.28;5030123;28;20447;-73
2022/05/21 07:24:50;;;;;;;30.37;22.10;;;;;;;37.40;45.48;101221.34;5030368;28;20428;-76
2022/05/21 07:27:17;;;;;;;40.80;22.80;;;;;;;37.63;45.09;101222.34;5030411;28;20416;-70
2022/05/21 07:29:45;;;;;;;28.00;20.50;;;;;;;37.55;44.16;101218.41;5046975;28;20458;-71
2022/05/21 07:32:22;;;;;;;32.00;20.27;;;;;;;37.51;44.72;101211.19;5023809;28;20463;-74
2022/05/21 07:34:48;;;;;;;29.77;21.60;;;;;;;37.52;44.71;101204.66;5053677;28;20427;-74
2022/05/21 07:37:19;;;;;;;37.83;24.27;;;;;;;37.28;45.19;101213.66;5041475;28;20503;-76
2022/05/21 07:39:46;;;;;;;38.93;25.63;;;;;;;37.37;45.20;101221.94;5042211;28;20470;-76
2022/05/21 07:42:12;;;;;;;31.13;22.60;;;;;;;37.51;44.77;101227.44;5041652;28;20463;-75
2022/05/21 07:44:40;;;;;;;35.00;26.77;;;;;;;37.58;44.79;101239.47;5041485;28;20518;-74
2022/05/21 07:47:06;;;;;;;27.27;20.50;;;;;;;37.26;45.40;101248.31;5052323;28;20457;-71
2022/05/21 07:49:35;;;;;;;27.47;21.50;;;;;;;37.27;44.83;101254.53;5021516;28;20456;-72
2022/05/21 07:52:02;;;;;;;30.07;20.53;;;;;;;37.04;45.23;101259.69;5019587;28;20472;-71
2022/05/21 07:54:28;;;;;;;25.73;20.67;;;;;;;36.99;45.82;101265.16;5010270;28;20923;-72
2022/05/21 07:56:54;;;;;;;30.20;18.60;;;;;;;37.21;45.17;101269.22;5013817;28;20455;-74
2022/05/21 07:59:22;;;;;;;33.10;19.37;;;;;;;37.23;45.23;101269.72;5035028;28;20450;-75
2022/05/21 08:01:49;;;;;;;31.83;20.80;;;;;;;37.28;44.89;101262.34;5027620;28;20410;-77
2022/05/21 08:04:17;;;;;;;36.23;23.30;;;;;;;37.22;45.34;101274.34;5027346;28;20467;-79
2022/05/21 08:06:47;;;;;;;26.73;19.00;;;;;;;37.25;45.40;101272.94;5035696;28;20474;-77
2022/05/21 08:09:14;;;;;;;33.77;18.70;;;;;;;37.46;45.05;101273.50;5011916;28;20449;-75
2022/05/21 08:11:51;;;;;;;30.40;16.40;;;;;;;37.77;44.01;101276.53;5010412;28;20901;-76
2022/05/21 08:14:18;;;;;;;25.20;16.17;;;;;;;37.89;43.79;101277.72;5010900;28;20447;-76
2022/05/21 08:16:46;;;;;;;32.40;14.87;;;;;;;37.73;44.41;101275.50;5017611;28;20982;-74
2022/05/21 08:19:15;;;;;;;42.80;30.77;;;;;;;37.71;44.22;101289.34;5035937;22;20484;-76
2022/05/21 08:21:42;;;;;;;24.80;17.23;;;;;;;37.98;43.58;101282.44;5023684;28;20432;-74
2022/05/21 08:27:02;;;;;;;48.87;21.43;;;;;;;38.25;43.16;101287.94;5008087;28;20448;-75
2022/05/21 08:29:31;;;;;;;31.80;18.37;;;;;;;38.39;42.89;101282.56;5024085;28;20432;-74
2022/05/21 08:31:57;;;;;;;22.73;14.73;;;;;;;38.03;43.59;101285.88;5010319;28;20463;-74
2022/05/21 08:34:26;;;;;;;25.83;19.27;;;;;;;37.96;43.30;101292.78;5023893;28;20419;-75
2022/05/21 08:36:54;;;;;;;28.70;19.80;;;;;;;38.04;43.46;101289.38;5010389;28;20417;-76
2022/05/21 08:39:21;;;;;;;25.60;20.97;;;;;;;38.46;42.61;101290.31;5027154;28;20981;-75
2022/05/21 08:41:56;;;;;;;27.97;18.00;;;;;;;38.56;42.20;101290.94;5026352;28;20456;-77
2022/05/21 08:44:47;;;;;;;20.07;11.77;;;;;;;38.73;42.00;101298.47;5026224;28;20858;-75
2022/05/21 08:47:59;;;;;;;15.23;11.87;;;;;;;38.63;42.13;101293.25;5024615;28;20419;-75
2022/05/21 08:50:34;;;;;;;29.00;20.13;;;;;;;38.76;42.28;101292.47;4953370;28;20422;-77
2022/05/21 08:53:15;;;;;;;28.53;17.30;;;;;;;38.60;41.99;101297.34;5004057;28;20428;-77
2022/05/21 08:55:45;;;;;;;34.40;27.70;;;;;;;38.50;41.93;101288.63;5024428;28;20542;-74
2022/05/21 08:58:42;;;;;;;31.57;17.80;;;;;;;38.55;41.75;101285.78;5012088;28;20429;-74
2022/05/21 09:01:16;;;;;;;23.30;14.03;;;;;;;38.63;41.70;101291.34;5008666;28;20460;-76
2022/05/21 09:03:45;;;;;;;17.63;12.87;;;;;;;38.82;41.17;101287.75;5026076;28;20431;-72
2022/05/21 09:06:14;;;;;;;20.03;13.63;;;;;;;38.77;41.59;101291.34;5011866;28;20432;-72
2022/05/21 09:09:08;;;;;;;33.60;21.77;;;;;;;38.67;41.50;101288.81;5025189;28;20892;-74
2022/05/21 09:11:50;;;;;;;30.50;19.87;;;;;;;38.54;41.80;101298.53;4956159;28;20504;-73
2022/05/21 09:14:36;;;;;;;28.67;17.73;;;;;;;38.61;41.84;101298.97;5006373;28;20523;-77
2022/05/21 09:17:11;;;;;;;36.67;23.77;;;;;;;38.79;41.46;101299.97;5021983;28;20429;-76
2022/05/21 09:19:47;;;;;;;20.57;12.80;;;;;;;38.80;40.43;101301.63;5003143;28;20997;-74
2022/05/21 09:22:15;;;;;;;18.70;12.27;;;;;;;38.90;40.58;101308.72;5021343;28;20436;-74
2022/05/21 09:24:45;;;;;;;14.30;10.90;;;;;;;39.02;40.73;101311.72;5004056;28;20535;-74
2022/05/21 09:27:35;;;;;;;23.77;13.47;;;;;;;39.12;41.44;101319.66;5007783;28;20424;-75
2022/05/21 09:30:25;;;;;;;28.10;16.83;;;;;;;39.09;41.79;101316.75;5004256;28;20421;-74
2022/05/21 09:33:00;;;;;;;18.33;12.57;;;;;;;39.17;41.54;101316.09;5005651;28;20414;-74
2022/05/21 09:35:32;;;;;;;26.83;15.57;;;;;;;39.14;41.77;101314.72;5003391;28;20972;-77
2022/05/21 09:38:13;;;;;;;34.73;15.50;;;;;;;39.23;41.29;101321.09;5012231;28;20432;-75
2022/05/21 09:40:45;;;;;;;30.63;21.37;;;;;;;39.33;41.16;101320.06;5006406;28;20429;-74
2022/05/21 09:46:26;;;;;;;29.60;13.43;;;;;;;39.30;41.70;101322.59;4996391;28;20450;-75
2022/05/21 09:49:11;;;;;;;18.83;14.40;;;;;;;39.40;41.29;101325.06;4994170;28;20456;-74
2022/05/21 09:51:40;;;;;;;19.63;13.20;;;;;;;39.35;41.34;101323.28;5014222;28;20471;-74
2022/05/21 09:54:27;;;;;;;24.03;13.83;;;;;;;39.39;41.47;101324.25;5014868;28;20527;-76
2022/05/21 09:56:55;;;;;;;22.37;13.27;;;;;;;39.37;41.36;101328.41;5010312;28;20432;-74
2022/05/21 09:59:26;;;;;;;26.50;13.30;;;;;;;39.42;41.30;101333.72;5014793;28;20425;-74
2022/05/21 10:01:57;;;;;;;16.70;12.20;;;;;;;39.36;41.50;101335.75;5013099;28;20452;-74
2022/05/21 10:04:35;;;;;;;25.50;13.00;;;;;;;39.25;41.67;101342.50;5005313;28;20474;-78
2022/05/21 10:10:58;;;;;;;19.47;12.53;;;;;;;39.29;41.81;101337.25;5004999;28;21048;-74
2022/05/21 10:13:04;;;;;;;17.20;10.97;;;;;;;39.36;41.37;101324.09;5006367;28;20476;-73
2022/05/21 10:15:40;;;;;;;16.77;9.60;;;;;;;39.41;41.25;101332.91;5008901;28;20452;-73
2022/05/21 10:18:26;;;;;;;49.93;22.43;;;;;;;39.31;42.06;101330.41;5001298;28;20453;-75
2022/05/21 10:21:00;;;;;;;35.73;13.33;;;;;;;39.14;42.93;101328.28;5006950;28;20821;-72
2022/05/21 10:24:02;;;;;;;20.00;12.13;;;;;;;38.85;43.11;101320.47;5001849;28;20464;-74
2022/05/21 10:27:09;;;;;;;29.83;12.50;;;;;;;38.79;43.12;101324.38;5001581;28;20527;-73
2022/05/21 10:30:00;;;;;;;26.63;11.63;;;;;;;38.79;42.82;101323.59;5005000;28;20417;-74
2022/05/21 10:32:30;;;;;;;30.50;13.33;;;;;;;38.68;43.00;101326.50;5013440;28;20479;-74
2022/05/21 10:35:46;;;;;;;33.00;15.27;;;;;;;38.54;43.31;101327.56;5011025;28;20456;-77
2022/05/21 10:38:34;;;;;;;41.27;15.00;;;;;;;38.48;44.02;101320.63;5007204;28;20444;-74
2022/05/21 10:41:06;;;;;;;37.63;13.07;;;;;;;38.45;43.65;101300.34;5029007;28;20425;-74
2022/05/21 10:43:58;;;;;;;32.67;13.97;;;;;;;38.32;43.13;101293.81;5029241;28;20439;-75
2022/05/21 10:47:08;;;;;;;17.87;10.07;;;;;;;38.37;43.13;101288.31;5029169;28;20490;-75
2022/05/21 10:49:37;;;;;;;23.70;11.43;;;;;;;38.39;43.49;101282.56;5029239;28;20420;-75
2022/05/21 10:53:01;;;;;;;27.63;9.77;;;;;;;38.31;43.47;101286.00;5028818;28;21019;-74
2022/05/21 10:56:07;;;;;;;22.93;11.20;;;;;;;38.30;43.73;101287.06;4956397;28;20433;-77
2022/05/21 10:58:36;;;;;;;25.43;11.73;;;;;;;38.36;43.43;101297.50;5002357;28;20507;-75
2022/05/21 11:01:15;;;;;;;21.73;10.87;;;;;;;38.33;43.22;101302.75;5013831;28;21006;-74
2022/05/21 11:04:01;;;;;;;14.20;7.83;;;;;;;38.30;43.50;101301.41;5028980;28;20425;-76
2022/05/21 11:06:29;;;;;;;25.10;12.43;;;;;;;38.27;43.58;101298.50;5013924;28;20416;-76
2022/05/21 11:09:07;;;;;;;32.07;12.77;;;;;;;38.26;43.69;101299.59;5028821;28;20546;-74
2022/05/21 11:11:42;;;;;;;27.10;11.90;;;;;;;38.31;43.60;101288.69;5028935;28;20486;-74
2022/05/21 11:14:18;;;;;;;17.13;11.50;;;;;;;38.16;44.07;101293.22;5028687;28;20831;-77
2022/05/21 11:17:12;;;;;;;20.93;12.77;;;;;;;37.40;41.66;101286.28;5028751;28;20425;-76
2022/05/21 11:19:44;;;;;;;20.80;11.20;;;;;;;37.45;42.42;101267.28;5028452;28;21012;-77
2022/05/21 11:22:36;;;;;;;26.27;12.43;;;;;;;37.00;41.99;101276.78;5028688;28;20424;-75
2022/05/21 11:25:22;;;;;;;27.90;20.57;;;;;;;36.86;43.49;101277.47;5012011;28;20990;-74
2022/05/21 11:28:15;;;;;;;22.33;15.67;;;;;;;36.75;42.94;101284.06;5028588;28;20443;-75
2022/05/21 11:30:41;;;;;;;23.33;19.57;;;;;;;36.89;43.36;101276.09;5028486;28;20570;-75
2022/05/21 11:38:52;;;;;;;34.77;26.80;;;;;;;36.58;44.53;101249.38;5013093;28;20463;-75
2022/05/21 11:41:32;;;;;;;13.07;7.17;;;;;;;36.54;43.24;101236.75;5028241;28;20452;-75
2022/05/21 11:43:58;;;;;;;18.67;12.23;;;;;;;36.15;44.26;101234.16;5028561;28;20455;-74
2022/05/21 11:46:36;;;;;;;24.37;18.93;;;;;;;35.65;47.16;101226.16;5027975;28;21026;-74
2022/05/21 11:49:28;;;;;;;18.30;11.67;;;;;;;35.51;49.10;101225.19;5028277;28;20425;-76
2022/05/21 11:51:58;;;;;;;20.87;11.67;;;;;;;35.87;48.93;101228.44;5013044;28;20460;-75